createdAt,value
2019-02-07T00:00:38.538Z,18.27
2019-02-07T00:03:07.891Z,16.50
2019-02-07T00:05:37.169Z,19.17
2019-02-07T00:08:06.752Z,21.68
2019-02-07T00:10:36.411Z,14.50
2019-02-07T00:13:06.661Z,17.32
2019-02-07T00:15:37.092Z,18.75
2019-02-07T00:18:06.641Z,16.80
2019-02-07T00:20:35.924Z,19.40
2019-02-07T00:23:05.352Z,17.98
2019-02-07T00:25:35.435Z,17.67
2019-02-07T00:28:05.149Z,14.60
2019-02-07T00:30:34.755Z,15.38
2019-02-07T00:33:04.043Z,16.10
2019-02-07T00:35:33.557Z,15.75
2019-02-07T00:38:02.852Z,18.32
2019-02-07T00:40:32.205Z,16.87
2019-02-07T00:43:01.489Z,15.13
2019-02-07T00:45:31.074Z,16.67
2019-02-07T00:48:00.783Z,18.27
2019-02-07T00:50:31.145Z,16.10
2019-02-07T00:53:00.613Z,18.20
2019-02-07T00:55:29.898Z,16.20
2019-02-07T00:57:59.419Z,16.27
2019-02-07T01:00:30.139Z,16.10
2019-02-07T01:02:59.434Z,19.12
2019-02-07T01:05:28.704Z,19.27
2019-02-07T01:07:58.465Z,20.15
2019-02-07T01:10:29.917Z,21.00
2019-02-07T01:12:59.274Z,18.40
2019-02-07T01:15:29.185Z,18.15
2019-02-07T01:17:58.559Z,18.05
2019-02-07T01:20:28.047Z,21.70
2019-02-07T01:22:58.266Z,22.17
2019-02-07T01:25:27.533Z,20.50
2019-02-07T01:27:57.379Z,20.75
2019-02-07T01:30:27.913Z,20.62
2019-02-07T01:32:57.633Z,22.58
2019-02-07T01:35:26.989Z,19.60
2019-02-07T01:37:56.723Z,20.02
2019-02-07T01:40:27.191Z,18.10
2019-02-07T01:42:56.469Z,21.90
2019-02-07T01:45:26.172Z,23.70
2019-02-07T01:47:55.777Z,20.75
2019-02-07T01:50:25.919Z,20.52
2019-02-07T01:52:55.619Z,26.90
2019-02-07T01:55:24.909Z,21.52
2019-02-07T01:57:54.267Z,21.30
2019-02-07T02:00:23.841Z,25.32
2019-02-07T02:02:53.135Z,26.48
2019-02-07T02:05:22.730Z,25.65
2019-02-07T02:07:52.379Z,27.02
2019-02-07T02:10:27.584Z,25.27
2019-02-07T02:12:57.725Z,21.37
2019-02-07T02:15:27.158Z,27.60
2019-02-07T02:17:56.439Z,28.10
2019-02-07T02:20:26.463Z,24.65
2019-02-07T02:22:56.556Z,27.10
2019-02-07T02:25:26.139Z,28.10
2019-02-07T02:27:55.484Z,27.52
2019-02-07T02:30:30.066Z,26.48
2019-02-07T02:32:59.410Z,25.30
2019-02-07T02:35:28.929Z,29.63
2019-02-07T02:37:58.216Z,22.55
2019-02-07T02:40:28.029Z,26.55
2019-02-07T02:42:57.388Z,22.35
2019-02-07T02:45:37.265Z,31.48
2019-02-07T02:47:58.892Z,26.50
2019-02-07T02:50:28.781Z,28.75
2019-02-07T02:52:58.065Z,26.73
2019-02-07T02:55:31.686Z,30.25
2019-02-07T02:58:01.019Z,27.20
2019-02-07T03:00:47.007Z,32.15
2019-02-07T03:03:23.643Z,23.07
2019-02-07T03:06:09.906Z,26.20
2019-02-07T03:08:41.207Z,32.42
2019-02-07T03:11:12.131Z,30.10
2019-02-07T03:13:43.380Z,30.82
2019-02-07T03:16:30.819Z,25.80
2019-02-07T03:19:18.324Z,30.43
2019-02-07T03:22:05.514Z,27.90
2019-02-07T03:24:52.645Z,25.62
2019-02-07T03:27:23.578Z,27.98
2019-02-07T03:30:10.765Z,27.45
2019-02-07T03:32:44.678Z,27.85
2019-02-07T03:35:25.623Z,27.45
2019-02-07T03:37:59.242Z,28.80
2019-02-07T03:40:39.565Z,26.07
2019-02-07T03:43:29.095Z,28.25
2019-02-07T03:46:15.551Z,23.02
2019-02-07T03:49:01.603Z,27.37
2019-02-07T03:51:48.602Z,28.45
2019-02-07T03:54:31.354Z,24.37
2019-02-07T03:57:18.545Z,26.57
2019-02-07T04:00:01.662Z,25.75
2019-02-07T04:02:32.625Z,27.50
2019-02-07T04:05:03.804Z,24.92
2019-02-07T04:07:51.099Z,25.35
2019-02-07T04:10:36.824Z,24.90
2019-02-07T04:13:24.625Z,24.32
2019-02-07T04:16:15.065Z,26.90
2019-02-07T04:18:56.434Z,26.55
2019-02-07T04:21:33.735Z,29.75
2019-02-07T04:24:04.651Z,24.52
2019-02-07T04:26:47.375Z,32.30
2019-02-07T04:29:18.290Z,28.38
2019-02-07T04:32:01.010Z,25.10
2019-02-07T04:34:48.199Z,25.68
2019-02-07T04:37:34.381Z,25.70
2019-02-07T04:40:12.183Z,23.50
2019-02-07T04:42:57.199Z,24.98
2019-02-07T04:45:34.393Z,23.10
2019-02-07T04:48:11.194Z,24.47
2019-02-07T04:50:50.987Z,24.47
2019-02-07T04:53:25.072Z,28.95
2019-02-07T04:56:11.060Z,26.75
2019-02-07T04:58:58.761Z,30.30
2019-02-07T05:01:35.607Z,25.15
2019-02-07T05:04:23.262Z,27.35
2019-02-07T05:06:54.448Z,26.45
2019-02-07T05:09:42.164Z,22.05
2019-02-07T05:12:28.227Z,25.02
2019-02-07T05:15:02.072Z,30.10
2019-02-07T05:17:41.958Z,22.93
2019-02-07T05:20:29.415Z,25.40
2019-02-07T05:23:00.522Z,33.88
2019-02-07T05:25:43.264Z,27.90
2019-02-07T05:28:30.866Z,23.38
2019-02-07T05:31:02.260Z,22.80
2019-02-07T05:33:49.646Z,23.42
2019-02-07T05:36:26.810Z,28.50
2019-02-07T05:39:00.626Z,34.73
2019-02-07T05:41:46.602Z,23.15
2019-02-07T05:44:17.537Z,23.87
2019-02-07T05:46:54.049Z,23.25
2019-02-07T05:49:25.458Z,26.20
2019-02-07T05:52:12.819Z,25.92
2019-02-07T05:54:59.965Z,26.55
2019-02-07T05:57:31.154Z,21.37
2019-02-07T06:00:20.813Z,25.97
2019-02-07T06:03:01.591Z,23.98
2019-02-07T06:05:41.871Z,27.55
2019-02-07T06:08:12.795Z,24.02
2019-02-07T06:10:43.727Z,24.67
2019-02-07T06:13:26.529Z,22.48
2019-02-07T06:16:03.221Z,33.02
2019-02-07T06:18:49.202Z,23.83
2019-02-07T06:21:29.336Z,23.65
2019-02-07T06:24:03.185Z,28.27
2019-02-07T06:26:46.255Z,26.12
2019-02-07T06:29:23.100Z,21.82
2019-02-07T06:31:54.547Z,24.87
2019-02-07T06:34:42.023Z,24.67
2019-02-07T06:37:16.065Z,23.45
2019-02-07T06:39:49.805Z,24.85
2019-02-07T06:42:20.969Z,23.22
2019-02-07T06:44:57.654Z,24.47
2019-02-07T06:47:37.914Z,24.27
2019-02-07T06:50:18.829Z,24.87
2019-02-07T06:52:50.048Z,22.75
2019-02-07T06:55:23.867Z,22.07
2019-02-07T06:57:55.085Z,25.35
2019-02-07T07:00:43.933Z,21.90
2019-02-07T07:03:31.356Z,29.02
2019-02-07T07:06:02.623Z,25.25
2019-02-07T07:08:45.990Z,22.13
2019-02-07T07:11:19.624Z,23.12
2019-02-07T07:14:07.063Z,23.80
2019-02-07T07:16:54.478Z,23.70
2019-02-07T07:19:43.354Z,27.77
2019-02-07T07:22:17.273Z,23.05
2019-02-07T07:24:51.102Z,21.68
2019-02-07T07:27:22.031Z,23.77
2019-02-07T07:30:08.324Z,20.32
2019-02-07T07:32:39.417Z,26.02
2019-02-07T07:35:28.213Z,25.30
2019-02-07T07:37:59.134Z,25.05
2019-02-07T07:40:30.058Z,30.15
2019-02-07T07:43:17.854Z,23.98
2019-02-07T07:45:57.583Z,33.20
2019-02-07T07:48:28.817Z,26.23
2019-02-07T07:51:00.373Z,28.57
2019-02-07T07:53:46.369Z,32.17
2019-02-07T07:56:22.723Z,37.23
2019-02-07T07:59:02.152Z,31.93
2019-02-07T08:01:42.450Z,32.20
2019-02-07T08:04:19.303Z,32.33
2019-02-07T08:07:08.715Z,34.33
2019-02-07T08:09:39.626Z,33.25
2019-02-07T08:12:10.559Z,33.50
2019-02-07T08:14:58.160Z,32.67
2019-02-07T08:17:35.379Z,38.58
2019-02-07T08:20:24.438Z,34.05
2019-02-07T08:22:58.310Z,36.38
2019-02-07T08:25:45.471Z,37.10
2019-02-07T08:28:16.428Z,35.08
2019-02-07T08:30:47.651Z,34.43
2019-02-07T08:33:24.325Z,31.27
2019-02-07T08:35:57.949Z,41.55
2019-02-07T08:38:28.890Z,31.33
2019-02-07T08:41:08.852Z,31.05
2019-02-07T08:43:39.777Z,33.90
2019-02-07T08:46:27.198Z,37.63
2019-02-07T08:49:00.946Z,37.85
2019-02-07T08:51:47.590Z,37.73
2019-02-07T08:54:18.514Z,34.75
2019-02-07T08:56:49.674Z,33.30
2019-02-07T08:59:38.947Z,30.80
2019-02-07T09:02:10.508Z,29.82
2019-02-07T09:04:41.465Z,34.35
2019-02-07T09:07:15.110Z,34.30
2019-02-07T09:09:54.956Z,31.77
2019-02-07T09:12:44.285Z,30.55
2019-02-07T09:15:15.632Z,34.40
2019-02-07T09:17:55.058Z,32.13
2019-02-07T09:20:42.455Z,37.70
2019-02-07T09:23:13.723Z,29.37
2019-02-07T09:25:59.707Z,25.85
2019-02-07T09:28:36.799Z,29.00
2019-02-07T09:31:20.020Z,25.05
2019-02-07T09:34:07.757Z,23.60
2019-02-07T09:36:41.380Z,17.40
2019-02-07T09:39:28.569Z,15.75
2019-02-07T09:42:16.040Z,14.25
2019-02-07T09:44:56.170Z,13.43
2019-02-07T09:47:29.803Z,13.58
2019-02-07T09:50:19.045Z,12.95
2019-02-07T09:53:05.233Z,13.13
2019-02-07T09:55:36.295Z,13.25
2019-02-07T09:58:23.793Z,12.65
2019-02-07T10:00:57.621Z,11.83
2019-02-07T10:03:31.571Z,11.15
2019-02-07T10:06:18.894Z,11.75
2019-02-07T10:08:58.455Z,12.15
2019-02-07T10:11:38.721Z,11.15
2019-02-07T10:14:22.065Z,9.33
2019-02-07T10:17:09.406Z,10.18
2019-02-07T10:19:58.624Z,10.55
2019-02-07T10:22:45.259Z,10.75
2019-02-07T10:25:16.505Z,10.00
2019-02-07T10:27:50.336Z,10.68
2019-02-07T10:30:28.274Z,9.55
2019-02-07T10:32:59.197Z,11.38
2019-02-07T10:35:46.705Z,13.68
2019-02-07T10:38:23.137Z,13.40
2019-02-07T10:41:10.918Z,12.03
2019-02-07T10:43:47.872Z,16.00
2019-02-07T10:46:21.469Z,15.32
2019-02-07T10:48:57.292Z,10.28
2019-02-07T10:51:34.187Z,8.93
2019-02-07T10:54:08.321Z,10.10
2019-02-07T10:56:57.433Z,10.10
2019-02-07T10:59:31.420Z,12.43
2019-02-07T11:02:18.745Z,10.32
2019-02-07T11:04:55.663Z,11.83
2019-02-07T11:07:26.582Z,22.30
2019-02-07T11:10:12.525Z,21.90
2019-02-07T11:12:49.722Z,17.77
2019-02-07T11:15:35.656Z,17.45
2019-02-07T11:18:23.855Z,16.50
2019-02-07T11:20:57.762Z,12.07
2019-02-07T11:23:34.486Z,16.80
2019-02-07T11:26:17.967Z,5.55
2019-02-07T11:28:48.880Z,11.22
2019-02-07T11:31:20.079Z,9.35
2019-02-07T11:34:03.287Z,6.28
2019-02-07T11:36:54.101Z,7.80
2019-02-07T11:39:29.844Z,13.30
2019-02-07T11:42:01.183Z,10.78
2019-02-07T11:44:38.029Z,11.73
2019-02-07T11:47:19.247Z,17.23
2019-02-07T11:49:50.491Z,13.43
2019-02-07T11:52:22.944Z,12.93
2019-02-07T11:55:00.033Z,15.40
2019-02-07T11:57:36.911Z,18.80
2019-02-07T12:00:14.828Z,11.50
2019-02-07T12:02:49.038Z,14.60
2019-02-07T12:05:25.697Z,10.40
2019-02-07T12:07:57.278Z,18.43
2019-02-07T12:10:30.889Z,12.73
2019-02-07T12:13:02.124Z,15.17
2019-02-07T12:15:36.951Z,19.40
2019-02-07T12:18:20.090Z,10.30
2019-02-07T12:20:53.819Z,11.57
2019-02-07T12:23:27.497Z,14.80
2019-02-07T12:26:04.274Z,12.47
2019-02-07T12:28:44.718Z,16.73
2019-02-07T12:31:15.727Z,14.93
2019-02-07T12:33:56.322Z,14.57
2019-02-07T12:36:39.593Z,12.20
2019-02-07T12:39:13.950Z,14.53
2019-02-07T12:41:50.846Z,12.20
2019-02-07T12:44:21.779Z,15.37
2019-02-07T12:47:01.480Z,16.10
2019-02-07T12:49:41.327Z,16.33
2019-02-07T12:52:21.211Z,16.40
2019-02-07T12:54:53.016Z,25.80
2019-02-07T12:57:26.594Z,43.83
2019-02-07T13:00:09.956Z,13.90
2019-02-07T13:02:46.855Z,20.17
2019-02-07T13:05:24.401Z,14.90
2019-02-07T13:07:55.794Z,14.43
2019-02-07T13:10:29.557Z,17.13
2019-02-07T13:13:03.190Z,17.77
2019-02-07T13:15:46.312Z,11.80
2019-02-07T13:18:34.326Z,9.97
2019-02-07T13:21:05.432Z,8.50
2019-02-07T13:23:39.315Z,12.73
2019-02-07T13:26:19.358Z,16.13
2019-02-07T13:28:51.522Z,17.03
2019-02-07T13:31:22.493Z,14.13
2019-02-07T13:33:53.607Z,15.67
2019-02-07T13:36:36.855Z,9.77
2019-02-07T13:39:25.981Z,14.47
2019-02-07T13:42:03.152Z,12.13
2019-02-07T13:44:37.117Z,14.87
2019-02-07T13:47:14.226Z,8.47
2019-02-07T13:50:00.171Z,6.93
2019-02-07T13:52:31.378Z,10.00
2019-02-07T13:55:02.301Z,10.70
2019-02-07T13:57:51.350Z,9.13
2019-02-07T14:00:23.436Z,9.43
2019-02-07T14:03:13.240Z,12.73
2019-02-07T14:05:52.961Z,6.67
2019-02-07T14:08:40.739Z,11.60
2019-02-07T14:11:20.675Z,14.53
2019-02-07T14:14:06.993Z,9.80
2019-02-07T14:16:37.917Z,12.50
2019-02-07T14:19:15.113Z,8.67
2019-02-07T14:21:54.744Z,15.90
2019-02-07T14:24:42.876Z,12.73
2019-02-07T14:27:22.930Z,8.77
2019-02-07T14:30:10.369Z,9.37
2019-02-07T14:32:44.670Z,11.37
2019-02-07T14:35:16.148Z,7.43
2019-02-07T14:37:49.502Z,13.80
2019-02-07T14:40:20.417Z,11.70
2019-02-07T14:42:51.599Z,8.90
2019-02-07T14:45:40.953Z,14.73
2019-02-07T14:48:12.317Z,10.27
2019-02-07T14:50:41.598Z,6.67
2019-02-07T14:53:11.128Z,8.17
2019-02-07T14:55:40.409Z,9.53
2019-02-07T14:58:09.692Z,7.17
2019-02-07T15:00:39.226Z,8.30
2019-02-07T15:03:08.601Z,6.20
2019-02-07T15:05:38.036Z,9.60
2019-02-07T15:08:07.541Z,11.63
2019-02-07T15:10:36.826Z,8.90
2019-02-07T15:13:06.168Z,9.50
2019-02-07T15:15:35.437Z,8.83
2019-02-07T15:18:05.359Z,6.50
2019-02-07T15:20:34.647Z,9.50
2019-02-07T15:23:04.185Z,7.27
2019-02-07T15:25:33.458Z,7.57
2019-02-07T15:28:02.725Z,5.03
2019-02-07T15:30:32.273Z,10.70
2019-02-07T15:33:01.885Z,7.67
2019-02-07T15:35:34.366Z,5.53
2019-02-07T15:38:04.007Z,5.83
2019-02-07T15:40:33.347Z,8.77
2019-02-07T15:43:02.695Z,9.73
2019-02-07T15:45:31.968Z,7.70
2019-02-07T15:48:01.583Z,6.97
2019-02-07T15:50:37.530Z,9.65
2019-02-07T15:53:03.517Z,13.28
2019-02-07T15:55:32.812Z,18.12
2019-02-07T15:58:02.154Z,10.83
2019-02-07T16:00:51.110Z,9.40
2019-02-07T16:03:22.025Z,12.40
2019-02-07T16:05:51.297Z,7.30
2019-02-07T16:08:20.575Z,5.85
2019-02-07T16:10:50.177Z,8.03
2019-02-07T16:13:19.440Z,7.13
2019-02-07T16:15:49.121Z,6.45
2019-02-07T16:18:18.398Z,11.33
2019-02-07T16:20:49.203Z,14.73
2019-02-07T16:23:18.711Z,11.40
2019-02-07T16:25:48.430Z,9.07
2019-02-07T16:28:20.282Z,5.90
2019-02-07T16:30:49.090Z,12.07
2019-02-07T16:33:18.361Z,10.80
2019-02-07T16:35:47.649Z,3.92
2019-02-07T16:38:16.909Z,7.13
2019-02-07T16:40:46.270Z,12.13
2019-02-07T16:43:15.611Z,9.78
2019-02-07T16:45:46.247Z,11.48
2019-02-07T16:48:16.506Z,10.35
2019-02-07T16:50:46.779Z,8.50
2019-02-07T16:53:16.062Z,10.18
2019-02-07T16:55:45.670Z,8.25
2019-02-07T16:58:14.945Z,4.78
2019-02-07T17:00:44.484Z,11.97
2019-02-07T17:03:14.100Z,6.85
2019-02-07T17:05:43.400Z,10.40
2019-02-07T17:08:13.014Z,14.10
2019-02-07T17:10:42.294Z,13.35
2019-02-07T17:13:13.585Z,6.45
2019-02-07T17:15:42.943Z,9.50
2019-02-07T17:18:12.302Z,10.28
2019-02-07T17:20:41.961Z,6.62
2019-02-07T17:23:11.236Z,6.20
2019-02-07T17:25:40.571Z,7.78
2019-02-07T17:28:11.189Z,5.08
2019-02-07T17:30:40.545Z,13.55
2019-02-07T17:33:10.792Z,9.58
2019-02-07T17:35:40.080Z,8.70
2019-02-07T17:38:09.631Z,9.00
2019-02-07T17:40:38.915Z,9.63
2019-02-07T17:43:08.361Z,7.47
2019-02-07T17:45:37.906Z,8.25
2019-02-07T17:48:07.541Z,6.70
2019-02-07T17:50:39.336Z,10.50
2019-02-07T17:53:13.415Z,7.60
2019-02-07T17:55:43.031Z,8.40
2019-02-07T17:58:13.046Z,9.35
2019-02-07T18:00:53.110Z,6.42
2019-02-07T18:03:22.574Z,9.10
2019-02-07T18:05:51.851Z,6.85
2019-02-07T18:08:21.505Z,9.45
2019-02-07T18:10:51.288Z,6.50
2019-02-07T18:13:20.931Z,9.60
2019-02-07T18:15:50.215Z,12.98
2019-02-07T18:18:19.670Z,8.55
2019-02-07T18:20:48.941Z,10.40
2019-02-07T18:23:18.547Z,16.60
2019-02-07T18:25:48.166Z,8.45
2019-02-07T18:28:17.496Z,4.33
2019-02-07T18:30:46.973Z,8.95
2019-02-07T18:33:16.252Z,9.98
2019-02-07T18:35:45.603Z,9.15
2019-02-07T18:38:14.895Z,9.18
2019-02-07T18:40:44.550Z,7.67
2019-02-07T18:43:13.924Z,7.58
2019-02-07T18:45:43.536Z,8.08
2019-02-07T18:48:13.211Z,9.93
2019-02-07T18:50:43.003Z,5.87
2019-02-07T18:53:12.291Z,6.87
2019-02-07T18:55:42.426Z,9.60
2019-02-07T18:58:11.720Z,11.05
2019-02-07T19:00:41.334Z,8.73
2019-02-07T19:03:10.689Z,5.80
2019-02-07T19:05:40.006Z,5.53
2019-02-07T19:08:10.526Z,6.35
2019-02-07T19:10:40.694Z,12.45
2019-02-07T19:13:09.977Z,9.40
2019-02-07T19:15:42.665Z,10.43
2019-02-07T19:18:12.016Z,5.65
2019-02-07T19:20:41.603Z,7.95
2019-02-07T19:23:10.935Z,5.80
2019-02-07T19:25:40.596Z,5.95
2019-02-07T19:28:09.879Z,5.90
2019-02-07T19:30:39.300Z,8.30
2019-02-07T19:33:08.587Z,11.18
2019-02-07T19:35:38.210Z,8.03
2019-02-07T19:38:07.469Z,6.22
2019-02-07T19:40:37.286Z,6.62
2019-02-07T19:43:06.819Z,7.83
2019-02-07T19:45:36.426Z,6.83
2019-02-07T19:48:06.047Z,7.10
2019-02-07T19:50:35.399Z,6.05
2019-02-07T19:53:05.124Z,7.00
2019-02-07T19:55:35.169Z,9.53
2019-02-07T19:58:05.291Z,4.87
2019-02-07T20:00:35.854Z,9.73
2019-02-07T20:03:05.583Z,3.98
2019-02-07T20:05:34.927Z,3.95
2019-02-07T20:08:04.552Z,4.35
2019-02-07T20:10:34.556Z,8.93
2019-02-07T20:13:03.912Z,4.47
2019-02-07T20:15:35.426Z,5.75
2019-02-07T20:18:07.559Z,7.47
2019-02-07T20:20:37.385Z,4.92
2019-02-07T20:23:06.663Z,3.83
2019-02-07T20:25:36.217Z,3.72
2019-02-07T20:28:05.975Z,8.28
2019-02-07T20:30:41.042Z,6.62
2019-02-07T20:33:10.374Z,6.72
2019-02-07T20:35:40.153Z,11.40
2019-02-07T20:38:10.066Z,5.70
2019-02-07T20:40:40.275Z,5.22
2019-02-07T20:43:09.750Z,6.83
2019-02-07T20:45:39.039Z,5.92
2019-02-07T20:48:08.922Z,3.85
2019-02-07T20:50:38.211Z,6.33
2019-02-07T20:53:07.501Z,3.42
2019-02-07T20:55:36.796Z,7.22
2019-02-07T20:58:07.052Z,7.28
2019-02-07T21:00:39.719Z,5.08
2019-02-07T21:03:09.327Z,5.45
2019-02-07T21:05:38.935Z,4.72
2019-02-07T21:08:08.209Z,3.83
2019-02-07T21:10:39.080Z,10.65
2019-02-07T21:13:08.996Z,7.53
2019-02-07T21:15:38.610Z,7.85
2019-02-07T21:18:07.889Z,3.98
2019-02-07T21:20:37.164Z,7.17
2019-02-07T21:23:07.132Z,6.45
2019-02-07T21:25:42.632Z,8.75
2019-02-07T21:28:12.584Z,6.12
2019-02-07T21:30:42.173Z,6.20
2019-02-07T21:33:11.467Z,8.85
2019-02-07T21:35:40.772Z,6.58
2019-02-07T21:38:10.145Z,11.25
2019-02-07T21:40:39.466Z,9.38
2019-02-07T21:43:09.146Z,5.72
2019-02-07T21:45:38.491Z,6.83
2019-02-07T21:48:09.018Z,5.70
2019-02-07T21:50:38.465Z,10.95
2019-02-07T21:53:08.820Z,5.03
2019-02-07T21:55:38.432Z,6.00
2019-02-07T21:58:09.058Z,7.90
2019-02-07T22:00:40.944Z,5.75
2019-02-07T22:03:11.970Z,5.00
2019-02-07T22:05:41.340Z,6.10
2019-02-07T22:08:10.638Z,10.15
2019-02-07T22:10:40.142Z,7.65
2019-02-07T22:13:09.951Z,7.70
2019-02-07T22:15:39.235Z,4.92
2019-02-07T22:18:09.555Z,7.42
2019-02-07T22:20:39.153Z,5.67
2019-02-07T22:23:08.432Z,10.65
2019-02-07T22:25:37.777Z,4.00
2019-02-07T22:28:08.300Z,7.25
2019-02-07T22:30:38.154Z,3.80
2019-02-07T22:33:08.126Z,8.28
2019-02-07T22:35:37.734Z,6.87
2019-02-07T22:38:07.348Z,5.00
2019-02-07T22:40:37.057Z,3.10
2019-02-07T22:43:07.088Z,4.30
2019-02-07T22:45:36.354Z,4.53
2019-02-07T22:48:06.487Z,5.92
2019-02-07T22:50:36.201Z,3.20
2019-02-07T22:53:06.315Z,4.40
2019-02-07T22:55:35.583Z,11.48
2019-02-07T22:58:06.181Z,5.05
2019-02-07T23:00:40.178Z,8.30
2019-02-07T23:03:18.480Z,7.42
2019-02-07T23:05:47.755Z,8.40
2019-02-07T23:08:18.250Z,7.47
2019-02-07T23:10:48.210Z,6.15
2019-02-07T23:13:17.504Z,7.78
2019-02-07T23:15:48.137Z,8.35
2019-02-07T23:18:17.758Z,6.87
2019-02-07T23:20:47.032Z,8.28
2019-02-07T23:23:16.317Z,5.45
2019-02-07T23:25:45.602Z,2.45
2019-02-07T23:28:15.655Z,7.62
2019-02-07T23:30:44.942Z,10.08
2019-02-07T23:33:14.231Z,4.55
2019-02-07T23:35:43.579Z,4.35
2019-02-07T23:38:13.181Z,6.50
2019-02-07T23:40:42.742Z,5.65
2019-02-07T23:43:12.549Z,6.97
2019-02-07T23:45:41.994Z,3.10
2019-02-07T23:48:11.510Z,5.85
2019-02-07T23:50:41.270Z,6.55
2019-02-07T23:53:14.977Z,4.87
2019-02-07T23:55:42.066Z,7.03
2019-02-07T23:58:11.579Z,10.70
